TimeCST,TemperatureF,Dew PointF,Humidity,Sea Level PressureIn,VisibilityMPH,Wind Direction,Wind SpeedMPH,Gust SpeedMPH,PrecipitationIn,Events,Conditions,WindDirDegrees,DateUTC
12:56 AM,50.0,36.0,59,30.22,10.0,North,11.5,-,N/A,,Overcast,360,2013-11-24 06:56:00
1:56 AM,50.0,35.1,57,30.23,10.0,North,16.1,-,N/A,,Overcast,360,2013-11-24 07:56:00
2:56 AM,48.0,32.0,54,30.25,10.0,North,13.8,-,N/A,,Overcast,10,2013-11-24 08:56:00
3:56 AM,45.0,28.9,53,30.25,10.0,North,15.0,-,N/A,,Clear,360,2013-11-24 09:56:00
4:56 AM,44.1,27.0,51,30.27,10.0,North,12.7,-,N/A,,Clear,360,2013-11-24 10:56:00
5:56 AM,43.0,26.1,51,30.28,10.0,NNE,17.3,25.3,N/A,,Clear,20,2013-11-24 11:56:00
6:56 AM,42.1,25.0,51,30.30,10.0,NNE,15.0,25.3,N/A,,Clear,20,2013-11-24 12:56:00
7:56 AM,44.1,25.0,47,30.32,10.0,North,18.4,26.5,N/A,,Clear,10,2013-11-24 13:56:00
8:56 AM,46.9,23.0,39,30.33,10.0,North,19.6,25.3,N/A,,Clear,10,2013-11-24 14:56:00
9:56 AM,50.0,21.9,33,30.32,10.0,NNE,20.7,28.8,N/A,,Clear,30,2013-11-24 15:56:00
10:56 AM,53.1,21.9,30,30.30,10.0,NNE,16.1,-,N/A,,Clear,30,2013-11-24 16:56:00
11:56 AM,55.0,23.0,29,30.27,10.0,NE,18.4,-,N/A,,Clear,40,2013-11-24 17:56:00
12:56 PM,57.0,25.0,29,30.25,10.0,North,12.7,-,N/A,,Clear,10,2013-11-24 18:56:00
1:56 PM,57.0,24.1,28,30.24,10.0,NE,15.0,-,N/A,,Clear,50,2013-11-24 19:56:00
2:56 PM,55.9,25.0,30,30.25,10.0,NNE,13.8,-,N/A,,Mostly Cloudy,20,2013-11-24 20:56:00
3:56 PM,54.0,26.1,34,30.26,10.0,NNE,9.2,-,N/A,,Mostly Cloudy,30,2013-11-24 21:56:00
4:56 PM,50.0,28.0,43,30.27,10.0,NNE,6.9,-,N/A,,Mostly Cloudy,20,2013-11-24 22:56:00
5:56 PM,48.0,28.9,48,30.30,10.0,North,6.9,-,N/A,,Partly Cloudy,10,2013-11-24 23:56:00
6:56 PM,46.0,28.0,50,30.31,10.0,NNE,10.4,-,N/A,,Partly Cloudy,20,2013-11-25 00:56:00
7:56 PM,45.0,27.0,49,30.31,10.0,NNE,9.2,-,N/A,,Scattered Clouds,30,2013-11-25 01:56:00
8:56 PM,44.1,27.0,51,30.31,10.0,NE,6.9,-,N/A,,Clear,40,2013-11-25 02:56:00
9:56 PM,43.0,28.0,56,30.30,10.0,ENE,6.9,-,N/A,,Clear,60,2013-11-25 03:56:00
10:56 PM,44.1,28.0,53,30.29,10.0,NE,9.2,-,N/A,,Clear,50,2013-11-25 04:56:00
11:56 PM,43.0,28.9,58,30.29,10.0,ENE,9.2,-,N/A,,Clear,60,2013-11-25 05:56:00